sensor_id;sensor_type;location;lat;lon;timestamp;temperature;humidity
22379;DHT22;11357;49.990;7.370;2023-08-20T00:00:00;23.90;91.10
22379;DHT22;11357;49.990;7.370;2023-08-20T00:02:28;23.90;91.10
22379;DHT22;11357;49.990;7.370;2023-08-20T00:04:57;23.80;91.20
22379;DHT22;11357;49.990;7.370;2023-08-20T00:07:23;23.80;91.20
22379;DHT22;11357;49.990;7.370;2023-08-20T00:09:48;23.90;91.20
22379;DHT22;11357;49.990;7.370;2023-08-20T00:12:14;23.80;91.10
22379;DHT22;11357;49.990;7.370;2023-08-20T00:17:24;23.70;91.20
22379;DHT22;11357;49.990;7.370;2023-08-20T00:19:53;23.80;91.10
22379;DHT22;11357;49.990;7.370;2023-08-20T00:22:21;23.80;91.00
22379;DHT22;11357;49.990;7.370;2023-08-20T00:24:47;23.70;91.00
22379;DHT22;11357;49.990;7.370;2023-08-20T00:27:12;23.70;90.90
22379;DHT22;11357;49.990;7.370;2023-08-20T00:29:38;23.70;91.00
22379;DHT22;11357;49.990;7.370;2023-08-20T00:32:04;23.70;91.00
22379;DHT22;11357;49.990;7.370;2023-08-20T00:34:29;23.70;90.80
22379;DHT22;11357;49.990;7.370;2023-08-20T00:36:55;23.60;90.70
22379;DHT22;11357;49.990;7.370;2023-08-20T00:39:20;23.60;90.70
22379;DHT22;11357;49.990;7.370;2023-08-20T00:41:46;23.50;90.70
22379;DHT22;11357;49.990;7.370;2023-08-20T00:44:12;23.50;90.70
22379;DHT22;11357;49.990;7.370;2023-08-20T00:46:38;23.40;90.70
22379;DHT22;11357;49.990;7.370;2023-08-20T00:49:04;23.30;90.70
22379;DHT22;11357;49.990;7.370;2023-08-20T00:51:32;23.30;90.70
22379;DHT22;11357;49.990;7.370;2023-08-20T00:53:58;23.20;90.80
22379;DHT22;11357;49.990;7.370;2023-08-20T00:56:24;23.20;90.80
22379;DHT22;11357;49.990;7.370;2023-08-20T00:58:50;23.10;90.80
22379;DHT22;11357;49.990;7.370;2023-08-20T01:01:15;23.00;90.80
22379;DHT22;11357;49.990;7.370;2023-08-20T01:03:41;22.90;90.90
22379;DHT22;11357;49.990;7.370;2023-08-20T01:06:23;22.80;90.90
22379;DHT22;11357;49.990;7.370;2023-08-20T01:08:57;22.70;91.00
22379;DHT22;11357;49.990;7.370;2023-08-20T01:11:35;22.70;91.10
22379;DHT22;11357;49.990;7.370;2023-08-20T01:14:02;22.60;91.20
22379;DHT22;11357;49.990;7.370;2023-08-20T01:16:28;22.60;91.10
22379;DHT22;11357;49.990;7.370;2023-08-20T01:18:54;22.60;91.10
22379;DHT22;11357;49.990;7.370;2023-08-20T01:21:39;22.50;91.10
22379;DHT22;11357;49.990;7.370;2023-08-20T01:29:43;22.50;91.70
22379;DHT22;11357;49.990;7.370;2023-08-20T01:32:10;22.50;91.50
22379;DHT22;11357;49.990;7.370;2023-08-20T01:34:37;22.50;91.60
22379;DHT22;11357;49.990;7.370;2023-08-20T01:37:03;22.50;91.50
22379;DHT22;11357;49.990;7.370;2023-08-20T01:39:29;22.50;91.60
22379;DHT22;11357;49.990;7.370;2023-08-20T01:41:54;22.50;91.70
22379;DHT22;11357;49.990;7.370;2023-08-20T01:44:20;22.50;91.70
22379;DHT22;11357;49.990;7.370;2023-08-20T01:46:45;22.50;91.70
22379;DHT22;11357;49.990;7.370;2023-08-20T01:49:11;22.50;91.60
22379;DHT22;11357;49.990;7.370;2023-08-20T01:51:37;22.50;91.60
22379;DHT22;11357;49.990;7.370;2023-08-20T01:54:02;22.50;91.70
22379;DHT22;11357;49.990;7.370;2023-08-20T01:56:28;22.50;91.80
22379;DHT22;11357;49.990;7.370;2023-08-20T01:58:54;22.50;92.00
22379;DHT22;11357;49.990;7.370;2023-08-20T02:01:19;22.50;92.20
22379;DHT22;11357;49.990;7.370;2023-08-20T02:03:46;22.60;92.20
22379;DHT22;11357;49.990;7.370;2023-08-20T02:06:11;22.60;92.30
22379;DHT22;11357;49.990;7.370;2023-08-20T02:08:37;22.60;92.40
22379;DHT22;11357;49.990;7.370;2023-08-20T02:11:03;22.70;92.50
22379;DHT22;11357;49.990;7.370;2023-08-20T02:13:30;22.70;92.60
22379;DHT22;11357;49.990;7.370;2023-08-20T02:16:03;22.80;92.60
22379;DHT22;11357;49.990;7.370;2023-08-20T02:18:30;22.80;92.70
22379;DHT22;11357;49.990;7.370;2023-08-20T02:20:56;22.80;92.60
22379;DHT22;11357;49.990;7.370;2023-08-20T02:23:22;22.90;92.70
22379;DHT22;11357;49.990;7.370;2023-08-20T02:25:48;22.90;92.70
22379;DHT22;11357;49.990;7.370;2023-08-20T02:28:14;22.90;92.70
22379;DHT22;11357;49.990;7.370;2023-08-20T02:30:46;22.90;92.60
22379;DHT22;11357;49.990;7.370;2023-08-20T02:33:12;22.90;92.60
22379;DHT22;11357;49.990;7.370;2023-08-20T02:35:38;23.00;92.60
22379;DHT22;11357;49.990;7.370;2023-08-20T02:38:05;23.00;92.40
22379;DHT22;11357;49.990;7.370;2023-08-20T02:40:31;23.00;92.40
22379;DHT22;11357;49.990;7.370;2023-08-20T02:42:56;23.00;92.30
22379;DHT22;11357;49.990;7.370;2023-08-20T02:45:22;23.00;92.30
22379;DHT22;11357;49.990;7.370;2023-08-20T02:47:48;23.00;92.20
22379;DHT22;11357;49.990;7.370;2023-08-20T02:50:14;23.00;92.20
22379;DHT22;11357;49.990;7.370;2023-08-20T02:52:44;23.00;92.10
22379;DHT22;11357;49.990;7.370;2023-08-20T02:55:10;23.00;92.40
22379;DHT22;11357;49.990;7.370;2023-08-20T02:57:36;23.00;92.00
22379;DHT22;11357;49.990;7.370;2023-08-20T03:00:01;23.00;91.90
22379;DHT22;11357;49.990;7.370;2023-08-20T03:02:28;23.00;91.90
22379;DHT22;11357;49.990;7.370;2023-08-20T03:04:53;22.90;91.80
22379;DHT22;11357;49.990;7.370;2023-08-20T03:07:21;22.90;91.90
22379;DHT22;11357;49.990;7.370;2023-08-20T03:09:48;22.90;91.90
22379;DHT22;11357;49.990;7.370;2023-08-20T03:12:14;22.80;91.90
22379;DHT22;11357;49.990;7.370;2023-08-20T03:14:39;22.80;91.90
22379;DHT22;11357;49.990;7.370;2023-08-20T03:17:05;22.70;91.90
22379;DHT22;11357;49.990;7.370;2023-08-20T03:19:33;22.60;92.00
22379;DHT22;11357;49.990;7.370;2023-08-20T03:22:01;22.60;92.20
22379;DHT22;11357;49.990;7.370;2023-08-20T03:24:26;22.60;92.30
22379;DHT22;11357;49.990;7.370;2023-08-20T03:26:52;22.60;92.30
22379;DHT22;11357;49.990;7.370;2023-08-20T03:29:18;22.60;92.30
22379;DHT22;11357;49.990;7.370;2023-08-20T03:31:43;22.50;92.30
22379;DHT22;11357;49.990;7.370;2023-08-20T03:34:09;22.50;92.70
22379;DHT22;11357;49.990;7.370;2023-08-20T03:36:35;22.50;92.40
22379;DHT22;11357;49.990;7.370;2023-08-20T03:39:01;22.50;92.30
22379;DHT22;11357;49.990;7.370;2023-08-20T03:41:26;22.40;92.30
22379;DHT22;11357;49.990;7.370;2023-08-20T03:43:52;22.40;92.30
22379;DHT22;11357;49.990;7.370;2023-08-20T03:46:18;22.40;92.30
22379;DHT22;11357;49.990;7.370;2023-08-20T03:48:44;22.40;92.30
22379;DHT22;11357;49.990;7.370;2023-08-20T03:51:09;22.40;92.30
22379;DHT22;11357;49.990;7.370;2023-08-20T03:53:35;22.40;92.20
22379;DHT22;11357;49.990;7.370;2023-08-20T03:56:01;22.40;92.10
22379;DHT22;11357;49.990;7.370;2023-08-20T03:58:26;22.40;92.10
22379;DHT22;11357;49.990;7.370;2023-08-20T04:00:52;22.40;92.10
22379;DHT22;11357;49.990;7.370;2023-08-20T04:03:17;22.40;92.10
22379;DHT22;11357;49.990;7.370;2023-08-20T04:05:45;22.40;92.10
22379;DHT22;11357;49.990;7.370;2023-08-20T04:08:10;22.30;92.10
22379;DHT22;11357;49.990;7.370;2023-08-20T04:10:42;22.30;92.10
22379;DHT22;11357;49.990;7.370;2023-08-20T04:13:08;22.30;92.10
22379;DHT22;11357;49.990;7.370;2023-08-20T04:15:34;22.40;92.10
22379;DHT22;11357;49.990;7.370;2023-08-20T04:17:59;22.40;92.10
22379;DHT22;11357;49.990;7.370;2023-08-20T04:20:25;22.40;92.10
22379;DHT22;11357;49.990;7.370;2023-08-20T04:22:51;22.40;92.10
22379;DHT22;11357;49.990;7.370;2023-08-20T04:25:16;22.40;92.10
22379;DHT22;11357;49.990;7.370;2023-08-20T04:27:42;22.40;92.10
22379;DHT22;11357;49.990;7.370;2023-08-20T04:30:09;22.40;92.20
22379;DHT22;11357;49.990;7.370;2023-08-20T04:32:35;22.40;92.20
22379;DHT22;11357;49.990;7.370;2023-08-20T04:35:00;22.40;92.20
22379;DHT22;11357;49.990;7.370;2023-08-20T04:37:26;22.40;92.20
22379;DHT22;11357;49.990;7.370;2023-08-20T04:39:52;22.40;92.20
22379;DHT22;11357;49.990;7.370;2023-08-20T04:42:17;22.50;92.20
22379;DHT22;11357;49.990;7.370;2023-08-20T04:44:43;22.40;92.10
22379;DHT22;11357;49.990;7.370;2023-08-20T04:47:12;22.40;92.10
22379;DHT22;11357;49.990;7.370;2023-08-20T04:49:38;22.40;92.30
22379;DHT22;11357;49.990;7.370;2023-08-20T04:52:05;22.40;92.30
22379;DHT22;11357;49.990;7.370;2023-08-20T04:54:31;22.40;92.40
22379;DHT22;11357;49.990;7.370;2023-08-20T04:56:56;22.40;92.30
22379;DHT22;11357;49.990;7.370;2023-08-20T04:59:22;22.50;92.40
22379;DHT22;11357;49.990;7.370;2023-08-20T05:01:49;22.40;92.50
22379;DHT22;11357;49.990;7.370;2023-08-20T05:04:14;22.40;92.50
22379;DHT22;11357;49.990;7.370;2023-08-20T05:06:40;22.40;92.50
22379;DHT22;11357;49.990;7.370;2023-08-20T05:09:05;22.50;92.60
22379;DHT22;11357;49.990;7.370;2023-08-20T05:11:31;22.50;92.60
22379;DHT22;11357;49.990;7.370;2023-08-20T05:13:58;22.50;92.60
22379;DHT22;11357;49.990;7.370;2023-08-20T05:16:24;22.50;92.60
22379;DHT22;11357;49.990;7.370;2023-08-20T05:18:49;22.50;92.70
22379;DHT22;11357;49.990;7.370;2023-08-20T05:21:15;22.60;92.70
22379;DHT22;11357;49.990;7.370;2023-08-20T05:23:41;22.60;92.70
22379;DHT22;11357;49.990;7.370;2023-08-20T05:26:07;22.70;92.80
22379;DHT22;11357;49.990;7.370;2023-08-20T05:28:33;22.70;92.80
22379;DHT22;11357;49.990;7.370;2023-08-20T05:30:59;22.80;93.20
22379;DHT22;11357;49.990;7.370;2023-08-20T05:33:26;22.90;92.90
22379;DHT22;11357;49.990;7.370;2023-08-20T05:35:52;22.90;92.90
22379;DHT22;11357;49.990;7.370;2023-08-20T05:38:18;22.90;93.10
22379;DHT22;11357;49.990;7.370;2023-08-20T05:40:44;22.90;93.10
22379;DHT22;11357;49.990;7.370;2023-08-20T05:43:09;23.00;93.20
22379;DHT22;11357;49.990;7.370;2023-08-20T05:45:35;23.00;93.40
22379;DHT22;11357;49.990;7.370;2023-08-20T05:48:01;23.00;93.50
22379;DHT22;11357;49.990;7.370;2023-08-20T05:50:26;23.10;93.60
22379;DHT22;11357;49.990;7.370;2023-08-20T05:52:52;23.10;93.50
22379;DHT22;11357;49.990;7.370;2023-08-20T05:55:18;23.20;93.60
22379;DHT22;11357;49.990;7.370;2023-08-20T05:57:44;23.20;93.50
22379;DHT22;11357;49.990;7.370;2023-08-20T06:00:11;23.30;93.50
22379;DHT22;11357;49.990;7.370;2023-08-20T06:02:37;23.30;93.60
22379;DHT22;11357;49.990;7.370;2023-08-20T06:05:04;23.50;93.80
22379;DHT22;11357;49.990;7.370;2023-08-20T06:07:30;23.60;93.80
22379;DHT22;11357;49.990;7.370;2023-08-20T06:09:56;23.70;93.70
22379;DHT22;11357;49.990;7.370;2023-08-20T06:12:23;23.80;93.60
22379;DHT22;11357;49.990;7.370;2023-08-20T06:14:49;24.00;93.60
22379;DHT22;11357;49.990;7.370;2023-08-20T06:17:15;24.00;93.40
22379;DHT22;11357;49.990;7.370;2023-08-20T06:19:40;24.10;93.60
22379;DHT22;11357;49.990;7.370;2023-08-20T06:22:06;24.20;93.80
22379;DHT22;11357;49.990;7.370;2023-08-20T06:24:32;24.40;93.90
22379;DHT22;11357;49.990;7.370;2023-08-20T06:26:58;24.40;94.00
22379;DHT22;11357;49.990;7.370;2023-08-20T06:29:23;24.50;94.00
22379;DHT22;11357;49.990;7.370;2023-08-20T06:31:49;24.40;93.90
22379;DHT22;11357;49.990;7.370;2023-08-20T06:34:15;24.50;94.10
22379;DHT22;11357;49.990;7.370;2023-08-20T06:36:41;24.60;94.40
22379;DHT22;11357;49.990;7.370;2023-08-20T06:39:07;24.70;94.40
22379;DHT22;11357;49.990;7.370;2023-08-20T06:41:34;25.00;94.20
22379;DHT22;11357;49.990;7.370;2023-08-20T06:43:59;25.10;93.80
22379;DHT22;11357;49.990;7.370;2023-08-20T06:46:25;25.20;93.70
22379;DHT22;11357;49.990;7.370;2023-08-20T06:48:51;25.30;93.60
22379;DHT22;11357;49.990;7.370;2023-08-20T06:51:20;25.50;93.40
22379;DHT22;11357;49.990;7.370;2023-08-20T06:53:46;25.50;93.20
22379;DHT22;11357;49.990;7.370;2023-08-20T06:56:12;25.50;93.00
22379;DHT22;11357;49.990;7.370;2023-08-20T06:58:39;25.40;93.00
22379;DHT22;11357;49.990;7.370;2023-08-20T07:01:05;25.40;93.00
22379;DHT22;11357;49.990;7.370;2023-08-20T07:03:41;25.30;92.90
22379;DHT22;11357;49.990;7.370;2023-08-20T07:06:08;25.30;93.10
22379;DHT22;11357;49.990;7.370;2023-08-20T07:08:40;25.40;93.20
22379;DHT22;11357;49.990;7.370;2023-08-20T07:11:06;25.50;92.90
22379;DHT22;11357;49.990;7.370;2023-08-20T07:13:32;25.60;92.90
22379;DHT22;11357;49.990;7.370;2023-08-20T07:15:58;25.70;92.70
22379;DHT22;11357;49.990;7.370;2023-08-20T07:18:23;25.70;92.70
22379;DHT22;11357;49.990;7.370;2023-08-20T07:20:50;25.80;92.70
22379;DHT22;11357;49.990;7.370;2023-08-20T07:23:16;25.90;92.60
22379;DHT22;11357;49.990;7.370;2023-08-20T07:25:42;26.10;92.60
22379;DHT22;11357;49.990;7.370;2023-08-20T07:28:08;26.30;92.20
22379;DHT22;11357;49.990;7.370;2023-08-20T07:30:37;26.50;91.80
22379;DHT22;11357;49.990;7.370;2023-08-20T07:33:03;26.70;91.60
22379;DHT22;11357;49.990;7.370;2023-08-20T07:35:29;26.90;91.30
22379;DHT22;11357;49.990;7.370;2023-08-20T07:37:54;27.10;90.70
22379;DHT22;11357;49.990;7.370;2023-08-20T07:40:20;27.20;90.40
22379;DHT22;11357;49.990;7.370;2023-08-20T07:42:46;27.50;90.10
22379;DHT22;11357;49.990;7.370;2023-08-20T07:45:12;27.80;89.60
22379;DHT22;11357;49.990;7.370;2023-08-20T07:47:38;28.10;88.60
22379;DHT22;11357;49.990;7.370;2023-08-20T07:50:05;28.40;87.70
22379;DHT22;11357;49.990;7.370;2023-08-20T07:52:33;28.50;86.10
22379;DHT22;11357;49.990;7.370;2023-08-20T07:54:59;28.50;85.90
22379;DHT22;11357;49.990;7.370;2023-08-20T07:57:25;28.60;85.20
22379;DHT22;11357;49.990;7.370;2023-08-20T07:59:51;28.80;85.30
22379;DHT22;11357;49.990;7.370;2023-08-20T08:02:16;29.10;84.40
22379;DHT22;11357;49.990;7.370;2023-08-20T08:04:43;29.50;83.70
22379;DHT22;11357;49.990;7.370;2023-08-20T08:07:12;29.80;82.90
22379;DHT22;11357;49.990;7.370;2023-08-20T08:09:38;29.90;81.60
22379;DHT22;11357;49.990;7.370;2023-08-20T08:12:04;30.00;80.70
22379;DHT22;11357;49.990;7.370;2023-08-20T08:14:30;30.20;80.00
22379;DHT22;11357;49.990;7.370;2023-08-20T08:16:56;30.30;78.80
22379;DHT22;11357;49.990;7.370;2023-08-20T08:19:22;30.40;78.60
22379;DHT22;11357;49.990;7.370;2023-08-20T08:21:48;30.60;78.40
22379;DHT22;11357;49.990;7.370;2023-08-20T08:24:14;30.70;78.00
22379;DHT22;11357;49.990;7.370;2023-08-20T08:26:41;30.80;76.90
22379;DHT22;11357;49.990;7.370;2023-08-20T08:29:07;30.80;76.80
22379;DHT22;11357;49.990;7.370;2023-08-20T08:31:33;30.80;76.80
22379;DHT22;11357;49.990;7.370;2023-08-20T08:33:59;30.70;76.00
22379;DHT22;11357;49.990;7.370;2023-08-20T08:36:25;30.70;76.20
22379;DHT22;11357;49.990;7.370;2023-08-20T08:38:52;30.80;75.90
22379;DHT22;11357;49.990;7.370;2023-08-20T08:41:21;31.10;76.10
22379;DHT22;11357;49.990;7.370;2023-08-20T08:43:47;31.30;75.40
22379;DHT22;11357;49.990;7.370;2023-08-20T08:46:13;31.40;74.40
22379;DHT22;11357;49.990;7.370;2023-08-20T08:48:44;31.50;73.60
22379;DHT22;11357;49.990;7.370;2023-08-20T08:51:13;31.60;73.30
22379;DHT22;11357;49.990;7.370;2023-08-20T08:53:39;31.80;72.90
22379;DHT22;11357;49.990;7.370;2023-08-20T08:56:07;32.00;72.40
22379;DHT22;11357;49.990;7.370;2023-08-20T08:58:33;32.20;71.10
22379;DHT22;11357;49.990;7.370;2023-08-20T09:00:59;32.40;70.00
22379;DHT22;11357;49.990;7.370;2023-08-20T09:03:25;32.70;69.80
22379;DHT22;11357;49.990;7.370;2023-08-20T09:06:01;33.10;68.80
22379;DHT22;11357;49.990;7.370;2023-08-20T09:08:32;33.10;68.50
22379;DHT22;11357;49.990;7.370;2023-08-20T09:11:01;33.40;68.10
22379;DHT22;11357;49.990;7.370;2023-08-20T09:13:41;33.80;67.10
22379;DHT22;11357;49.990;7.370;2023-08-20T09:16:12;34.10;66.00
22379;DHT22;11357;49.990;7.370;2023-08-20T09:18:39;34.10;66.60
22379;DHT22;11357;49.990;7.370;2023-08-20T09:21:10;34.50;66.50
22379;DHT22;11357;49.990;7.370;2023-08-20T09:23:37;34.80;63.80
22379;DHT22;11357;49.990;7.370;2023-08-20T09:26:04;34.90;64.00
22379;DHT22;11357;49.990;7.370;2023-08-20T09:28:44;35.00;63.70
22379;DHT22;11357;49.990;7.370;2023-08-20T09:31:10;35.20;64.00
22379;DHT22;11357;49.990;7.370;2023-08-20T09:33:36;35.50;63.70
22379;DHT22;11357;49.990;7.370;2023-08-20T09:36:07;35.80;63.30
22379;DHT22;11357;49.990;7.370;2023-08-20T09:38:36;35.90;61.40
22379;DHT22;11357;49.990;7.370;2023-08-20T09:41:05;35.90;60.20
22379;DHT22;11357;49.990;7.370;2023-08-20T09:43:37;36.00;60.60
22379;DHT22;11357;49.990;7.370;2023-08-20T09:46:04;36.30;59.40
22379;DHT22;11357;49.990;7.370;2023-08-20T09:48:33;36.30;58.40
22379;DHT22;11357;49.990;7.370;2023-08-20T09:51:04;36.20;58.20
22379;DHT22;11357;49.990;7.370;2023-08-20T09:53:56;36.20;58.80
22379;DHT22;11357;49.990;7.370;2023-08-20T09:56:30;36.40;58.90
22379;DHT22;11357;49.990;7.370;2023-08-20T09:59:00;36.40;57.80
22379;DHT22;11357;49.990;7.370;2023-08-20T10:01:27;36.20;57.30
22379;DHT22;11357;49.990;7.370;2023-08-20T10:03:54;36.40;57.70
22379;DHT22;11357;49.990;7.370;2023-08-20T10:06:20;36.90;57.00
22379;DHT22;11357;49.990;7.370;2023-08-20T10:08:47;37.40;56.30
22379;DHT22;11357;49.990;7.370;2023-08-20T10:11:15;37.90;55.60
22379;DHT22;11357;49.990;7.370;2023-08-20T10:13:44;38.40;55.40
22379;DHT22;11357;49.990;7.370;2023-08-20T10:16:17;38.90;53.60
22379;DHT22;11357;49.990;7.370;2023-08-20T10:18:50;39.20;53.80
22379;DHT22;11357;49.990;7.370;2023-08-20T10:21:16;39.50;51.60
22379;DHT22;11357;49.990;7.370;2023-08-20T10:23:48;39.60;51.40
22379;DHT22;11357;49.990;7.370;2023-08-20T10:26:14;39.80;51.60
22379;DHT22;11357;49.990;7.370;2023-08-20T10:28:42;40.00;50.60
22379;DHT22;11357;49.990;7.370;2023-08-20T10:31:09;40.20;50.80
22379;DHT22;11357;49.990;7.370;2023-08-20T10:33:55;40.40;49.80
22379;DHT22;11357;49.990;7.370;2023-08-20T10:36:35;40.70;49.00
22379;DHT22;11357;49.990;7.370;2023-08-20T10:39:20;41.10;47.40
22379;DHT22;11357;49.990;7.370;2023-08-20T10:41:50;41.00;46.70
22379;DHT22;11357;49.990;7.370;2023-08-20T10:45:08;41.10;46.00
22379;DHT22;11357;49.990;7.370;2023-08-20T10:47:55;41.40;46.80
22379;DHT22;11357;49.990;7.370;2023-08-20T10:51:25;41.90;46.20
22379;DHT22;11357;49.990;7.370;2023-08-20T10:54:09;42.40;45.70
22379;DHT22;11357;49.990;7.370;2023-08-20T10:57:00;42.80;44.30
22379;DHT22;11357;49.990;7.370;2023-08-20T10:59:31;43.00;43.70
22379;DHT22;11357;49.990;7.370;2023-08-20T11:01:58;43.30;43.00
22379;DHT22;11357;49.990;7.370;2023-08-20T11:04:33;43.60;42.30
22379;DHT22;11357;49.990;7.370;2023-08-20T11:06:59;43.70;41.70
22379;DHT22;11357;49.990;7.370;2023-08-20T11:09:29;44.10;41.10
22379;DHT22;11357;49.990;7.370;2023-08-20T11:12:29;44.40;40.70
22379;DHT22;11357;49.990;7.370;2023-08-20T11:15:27;44.60;40.40
22379;DHT22;11357;49.990;7.370;2023-08-20T11:17:53;44.80;39.60
22379;DHT22;11357;49.990;7.370;2023-08-20T11:20:21;45.00;37.40
22379;DHT22;11357;49.990;7.370;2023-08-20T11:22:47;44.80;36.20
22379;DHT22;11357;49.990;7.370;2023-08-20T11:25:13;44.60;36.10
22379;DHT22;11357;49.990;7.370;2023-08-20T11:27:42;44.20;35.30
22379;DHT22;11357;49.990;7.370;2023-08-20T11:30:09;43.80;37.20
22379;DHT22;11357;49.990;7.370;2023-08-20T11:32:37;43.80;36.70
22379;DHT22;11357;49.990;7.370;2023-08-20T11:35:04;43.50;37.30
22379;DHT22;11357;49.990;7.370;2023-08-20T11:37:30;43.10;36.50
22379;DHT22;11357;49.990;7.370;2023-08-20T11:39:56;42.50;37.90
22379;DHT22;11357;49.990;7.370;2023-08-20T11:42:22;42.20;38.50
22379;DHT22;11357;49.990;7.370;2023-08-20T11:44:49;42.50;38.20
22379;DHT22;11357;49.990;7.370;2023-08-20T11:47:18;42.10;37.30
22379;DHT22;11357;49.990;7.370;2023-08-20T11:49:44;42.10;39.00
22379;DHT22;11357;49.990;7.370;2023-08-20T11:52:11;42.40;38.90
22379;DHT22;11357;49.990;7.370;2023-08-20T11:54:38;42.70;38.60
22379;DHT22;11357;49.990;7.370;2023-08-20T11:57:05;42.80;37.90
22379;DHT22;11357;49.990;7.370;2023-08-20T11:59:32;42.70;37.00
22379;DHT22;11357;49.990;7.370;2023-08-20T12:01:59;42.70;36.60
22379;DHT22;11357;49.990;7.370;2023-08-20T12:04:29;42.50;38.40
22379;DHT22;11357;49.990;7.370;2023-08-20T12:07:05;42.60;39.10
22379;DHT22;11357;49.990;7.370;2023-08-20T12:09:32;42.80;38.00
22379;DHT22;11357;49.990;7.370;2023-08-20T12:11:58;43.00;37.30
22379;DHT22;11357;49.990;7.370;2023-08-20T12:14:24;42.90;38.00
22379;DHT22;11357;49.990;7.370;2023-08-20T12:16:50;42.80;37.30
22379;DHT22;11357;49.990;7.370;2023-08-20T12:19:16;42.50;36.90
22379;DHT22;11357;49.990;7.370;2023-08-20T12:21:42;42.30;36.70
22379;DHT22;11357;49.990;7.370;2023-08-20T12:24:09;42.00;36.80
22379;DHT22;11357;49.990;7.370;2023-08-20T12:26:39;41.80;37.40
22379;DHT22;11357;49.990;7.370;2023-08-20T12:29:05;41.70;37.00
22379;DHT22;11357;49.990;7.370;2023-08-20T12:31:32;41.50;36.70
22379;DHT22;11357;49.990;7.370;2023-08-20T12:33:57;41.10;37.90
22379;DHT22;11357;49.990;7.370;2023-08-20T12:36:23;40.90;39.00
22379;DHT22;11357;49.990;7.370;2023-08-20T12:38:49;40.90;39.20
22379;DHT22;11357;49.990;7.370;2023-08-20T12:41:14;40.50;38.10
22379;DHT22;11357;49.990;7.370;2023-08-20T12:43:40;39.90;39.30
22379;DHT22;11357;49.990;7.370;2023-08-20T12:46:06;39.70;39.70
22379;DHT22;11357;49.990;7.370;2023-08-20T12:48:32;39.70;40.10
22379;DHT22;11357;49.990;7.370;2023-08-20T12:50:58;39.90;40.80
22379;DHT22;11357;49.990;7.370;2023-08-20T12:53:24;40.40;41.30
22379;DHT22;11357;49.990;7.370;2023-08-20T12:55:49;41.10;40.80
22379;DHT22;11357;49.990;7.370;2023-08-20T12:58:15;41.60;39.50
22379;DHT22;11357;49.990;7.370;2023-08-20T13:00:41;41.80;38.20
22379;DHT22;11357;49.990;7.370;2023-08-20T13:03:07;41.70;38.90
22379;DHT22;11357;49.990;7.370;2023-08-20T13:05:33;41.90;38.60
22379;DHT22;11357;49.990;7.370;2023-08-20T13:07:59;42.20;38.90
22379;DHT22;11357;49.990;7.370;2023-08-20T13:10:25;42.40;39.00
22379;DHT22;11357;49.990;7.370;2023-08-20T13:12:54;42.60;38.10
22379;DHT22;11357;49.990;7.370;2023-08-20T13:15:23;42.40;37.10
22379;DHT22;11357;49.990;7.370;2023-08-20T13:17:50;42.20;37.10
22379;DHT22;11357;49.990;7.370;2023-08-20T13:20:16;42.20;37.70
22379;DHT22;11357;49.990;7.370;2023-08-20T13:22:49;42.20;37.60
22379;DHT22;11357;49.990;7.370;2023-08-20T13:25:15;42.10;37.20
22379;DHT22;11357;49.990;7.370;2023-08-20T13:27:40;41.80;36.90
22379;DHT22;11357;49.990;7.370;2023-08-20T13:30:07;41.40;37.30
22379;DHT22;11357;49.990;7.370;2023-08-20T13:32:34;41.00;37.80
22379;DHT22;11357;49.990;7.370;2023-08-20T13:35:00;40.70;38.30
22379;DHT22;11357;49.990;7.370;2023-08-20T13:37:25;40.40;38.50
22379;DHT22;11357;49.990;7.370;2023-08-20T13:39:51;40.10;38.90
22379;DHT22;11357;49.990;7.370;2023-08-20T13:42:16;39.90;38.60
22379;DHT22;11357;49.990;7.370;2023-08-20T13:44:42;39.50;39.20
22379;DHT22;11357;49.990;7.370;2023-08-20T13:47:08;39.40;39.50
22379;DHT22;11357;49.990;7.370;2023-08-20T13:49:34;39.30;40.50
22379;DHT22;11357;49.990;7.370;2023-08-20T13:52:00;39.50;40.90
22379;DHT22;11357;49.990;7.370;2023-08-20T13:54:25;39.80;41.50
22379;DHT22;11357;49.990;7.370;2023-08-20T13:56:51;40.10;41.70
22379;DHT22;11357;49.990;7.370;2023-08-20T13:59:17;40.40;41.50
22379;DHT22;11357;49.990;7.370;2023-08-20T14:01:43;40.70;39.50
22379;DHT22;11357;49.990;7.370;2023-08-20T14:04:08;40.40;39.50
22379;DHT22;11357;49.990;7.370;2023-08-20T14:06:34;40.40;40.30
22379;DHT22;11357;49.990;7.370;2023-08-20T14:09:00;40.60;40.00
22379;DHT22;11357;49.990;7.370;2023-08-20T14:11:26;40.60;40.00
22379;DHT22;11357;49.990;7.370;2023-08-20T14:13:52;40.10;39.20
22379;DHT22;11357;49.990;7.370;2023-08-20T14:16:17;39.60;40.50
22379;DHT22;11357;49.990;7.370;2023-08-20T14:18:43;39.50;41.20
22379;DHT22;11357;49.990;7.370;2023-08-20T14:21:09;39.40;41.90
22379;DHT22;11357;49.990;7.370;2023-08-20T14:23:34;39.50;42.40
22379;DHT22;11357;49.990;7.370;2023-08-20T14:26:00;39.60;41.90
22379;DHT22;11357;49.990;7.370;2023-08-20T14:28:26;39.70;41.60
22379;DHT22;11357;49.990;7.370;2023-08-20T14:30:52;39.70;42.20
22379;DHT22;11357;49.990;7.370;2023-08-20T14:33:20;39.70;42.20
22379;DHT22;11357;49.990;7.370;2023-08-20T14:35:46;39.70;41.50
22379;DHT22;11357;49.990;7.370;2023-08-20T14:38:12;39.70;40.10
22379;DHT22;11357;49.990;7.370;2023-08-20T14:40:39;39.50;41.00
22379;DHT22;11357;49.990;7.370;2023-08-20T14:43:06;39.40;40.90
22379;DHT22;11357;49.990;7.370;2023-08-20T14:45:32;39.40;40.70
22379;DHT22;11357;49.990;7.370;2023-08-20T14:47:57;39.30;41.20
22379;DHT22;11357;49.990;7.370;2023-08-20T14:50:24;39.10;40.20
22379;DHT22;11357;49.990;7.370;2023-08-20T14:52:49;38.80;41.20
22379;DHT22;11357;49.990;7.370;2023-08-20T14:55:20;38.70;41.60
22379;DHT22;11357;49.990;7.370;2023-08-20T14:57:46;38.50;42.00
22379;DHT22;11357;49.990;7.370;2023-08-20T15:00:13;38.30;41.80
22379;DHT22;11357;49.990;7.370;2023-08-20T15:02:43;38.10;42.40
22379;DHT22;11357;49.990;7.370;2023-08-20T15:05:10;37.90;44.20
22379;DHT22;11357;49.990;7.370;2023-08-20T15:07:36;37.80;44.10
22379;DHT22;11357;49.990;7.370;2023-08-20T15:10:06;37.70;44.40
22379;DHT22;11357;49.990;7.370;2023-08-20T15:12:36;37.70;44.90
22379;DHT22;11357;49.990;7.370;2023-08-20T15:15:03;37.70;45.70
22379;DHT22;11357;49.990;7.370;2023-08-20T15:17:30;37.80;44.20
22379;DHT22;11357;49.990;7.370;2023-08-20T15:19:57;37.50;44.00
22379;DHT22;11357;49.990;7.370;2023-08-20T15:22:22;37.20;43.80
22379;DHT22;11357;49.990;7.370;2023-08-20T15:24:48;36.90;44.60
22379;DHT22;11357;49.990;7.370;2023-08-20T15:27:19;36.70;43.90
22379;DHT22;11357;49.990;7.370;2023-08-20T15:29:44;36.50;44.00
22379;DHT22;11357;49.990;7.370;2023-08-20T15:32:10;36.00;43.90
22379;DHT22;11357;49.990;7.370;2023-08-20T15:34:37;35.70;45.30
22379;DHT22;11357;49.990;7.370;2023-08-20T15:37:02;35.60;45.30
22379;DHT22;11357;49.990;7.370;2023-08-20T15:39:31;35.60;46.40